createdAt,value
2023-04-28T00:01:13.173Z,13.54
2023-04-28T00:03:39.829Z,13.35
2023-04-28T00:06:06.520Z,13.28
2023-04-28T00:08:33.130Z,13.20
2023-04-28T00:11:00.279Z,13.28
2023-04-28T00:13:26.900Z,13.32
2023-04-28T00:15:54.168Z,13.32
2023-04-28T00:18:21.380Z,13.44
2023-04-28T00:20:48.106Z,13.50
2023-04-28T00:23:14.490Z,13.35
2023-04-28T00:25:40.851Z,13.31
2023-04-28T00:28:07.290Z,13.32
2023-04-28T00:30:33.711Z,13.30
2023-04-28T00:33:00.149Z,13.26
2023-04-28T00:35:26.646Z,13.19
2023-04-28T00:37:53.067Z,13.17
2023-04-28T00:40:19.496Z,13.20
2023-04-28T00:42:46.104Z,13.14
2023-04-28T00:45:12.466Z,13.04
2023-04-28T00:47:38.944Z,12.95
2023-04-28T00:50:06.589Z,12.81
2023-04-28T00:52:33.094Z,12.71
2023-04-28T00:54:59.705Z,12.66
2023-04-28T00:57:26.237Z,12.69
2023-04-28T00:59:53.040Z,12.64
2023-04-28T01:02:19.993Z,12.76
2023-04-28T01:04:47.137Z,12.86
2023-04-28T01:07:13.613Z,12.84
2023-04-28T01:09:39.989Z,12.67
2023-04-28T01:12:06.744Z,12.62
2023-04-28T01:14:33.985Z,12.60
2023-04-28T01:17:00.695Z,12.83
2023-04-28T01:19:27.906Z,12.90
2023-04-28T01:21:54.472Z,12.89
2023-04-28T01:24:21.034Z,12.89
2023-04-28T01:26:47.590Z,12.86
2023-04-28T01:29:14.144Z,12.91
2023-04-28T01:31:41.114Z,12.92
2023-04-28T01:34:07.900Z,13.04
2023-04-28T01:36:37.242Z,12.97
2023-04-28T01:39:04.649Z,12.99
2023-04-28T01:41:31.380Z,12.97
2023-04-28T01:43:57.994Z,12.95
2023-04-28T01:46:24.442Z,12.98
2023-04-28T01:48:50.838Z,12.89
2023-04-28T01:51:17.341Z,12.89
2023-04-28T01:53:43.755Z,12.94
2023-04-28T01:56:10.248Z,13.03
2023-04-28T01:58:36.691Z,13.02
2023-04-28T02:01:03.149Z,13.01
2023-04-28T02:03:29.672Z,12.96
2023-04-28T02:05:56.472Z,12.91
2023-04-28T02:08:22.907Z,12.91
2023-04-28T02:10:49.346Z,12.90
2023-04-28T02:13:17.180Z,12.95
2023-04-28T02:15:44.249Z,12.90
2023-04-28T02:18:11.250Z,12.90
2023-04-28T02:20:37.727Z,12.94
2023-04-28T02:23:04.197Z,13.01
2023-04-28T02:25:30.619Z,12.97
2023-04-28T02:27:57.420Z,12.97
2023-04-28T02:30:23.810Z,12.92
2023-04-28T02:32:50.268Z,12.88
2023-04-28T02:35:16.753Z,12.83
2023-04-28T02:37:43.183Z,12.74
2023-04-28T02:40:09.910Z,12.70
2023-04-28T02:42:36.318Z,12.64
2023-04-28T02:45:02.740Z,12.63
2023-04-28T02:47:29.228Z,12.54
2023-04-28T02:49:55.797Z,12.58
2023-04-28T02:52:22.218Z,12.51
2023-04-28T02:54:49.251Z,12.46
2023-04-28T02:57:15.847Z,12.40
2023-04-28T02:59:42.475Z,12.38
2023-04-28T03:02:09.197Z,12.33
2023-04-28T03:04:35.849Z,12.33
2023-04-28T03:07:02.416Z,12.39
2023-04-28T03:09:28.826Z,12.34
2023-04-28T03:11:55.212Z,12.39
2023-04-28T03:14:21.601Z,12.38
2023-04-28T03:16:48.176Z,12.27
2023-04-28T03:19:14.666Z,12.13
2023-04-28T03:21:41.219Z,12.07
2023-04-28T03:24:07.872Z,12.01
2023-04-28T03:26:34.776Z,11.85
2023-04-28T03:29:01.216Z,11.98
2023-04-28T03:31:27.680Z,12.00
2023-04-28T03:33:54.087Z,11.93
2023-04-28T03:36:20.475Z,11.93
2023-04-28T03:38:47.039Z,11.85
2023-04-28T03:41:13.645Z,11.87
2023-04-28T03:43:40.011Z,11.83
2023-04-28T03:46:06.665Z,11.89
2023-04-28T03:48:33.155Z,12.03
2023-04-28T03:50:59.556Z,12.07
2023-04-28T03:53:25.962Z,12.05
2023-04-28T03:55:52.482Z,12.11
2023-04-28T03:58:18.929Z,12.16
2023-04-28T04:00:45.454Z,12.17
2023-04-28T04:03:12.144Z,12.07
2023-04-28T04:05:41.264Z,11.82
2023-04-28T04:08:07.843Z,11.85
2023-04-28T04:10:34.242Z,11.94
2023-04-28T04:13:00.660Z,11.99
2023-04-28T04:15:27.110Z,11.91
2023-04-28T04:17:53.572Z,11.96
2023-04-28T04:20:20.072Z,11.98
2023-04-28T04:22:46.475Z,11.96
2023-04-28T04:25:12.952Z,11.89
2023-04-28T04:27:39.466Z,11.84
2023-04-28T04:30:07.186Z,11.83
2023-04-28T04:32:33.639Z,11.78
2023-04-28T04:35:00.241Z,11.74
2023-04-28T04:37:27.012Z,11.73
2023-04-28T04:39:53.391Z,11.71
2023-04-28T04:42:25.479Z,11.74
2023-04-28T04:44:52.330Z,11.77
2023-04-28T04:47:19.122Z,11.62
2023-04-28T04:49:45.656Z,11.62
2023-04-28T04:52:12.051Z,11.59
2023-04-28T04:54:38.416Z,11.64
2023-04-28T04:57:05.126Z,11.71
2023-04-28T04:59:31.677Z,11.67
2023-04-28T05:01:58.141Z,11.69
2023-04-28T05:04:24.668Z,11.72
2023-04-28T05:06:51.541Z,11.77
2023-04-28T05:09:18.025Z,11.82
2023-04-28T05:11:45.704Z,11.98
2023-04-28T05:14:12.101Z,12.05
2023-04-28T05:16:39.311Z,12.05
2023-04-28T05:19:05.981Z,12.10
2023-04-28T05:21:32.667Z,12.12
2023-04-28T05:23:59.072Z,12.14
2023-04-28T05:26:26.076Z,12.18
2023-04-28T05:28:52.579Z,12.13
2023-04-28T05:31:19.090Z,12.25
2023-04-28T05:33:45.948Z,12.38
2023-04-28T05:36:13.016Z,12.44
2023-04-28T05:38:39.530Z,12.50
2023-04-28T05:41:06.142Z,12.58
2023-04-28T05:43:32.544Z,12.60
2023-04-28T05:46:00.299Z,12.64
2023-04-28T05:48:27.055Z,12.67
2023-04-28T05:50:53.616Z,12.71
2023-04-28T05:53:20.336Z,12.77
2023-04-28T05:55:46.913Z,12.77
2023-04-28T05:58:13.346Z,12.79
2023-04-28T06:00:39.758Z,12.78
2023-04-28T06:03:06.903Z,12.79
2023-04-28T06:05:33.710Z,12.79
2023-04-28T06:08:00.247Z,12.47
2023-04-28T06:10:26.745Z,12.29
2023-04-28T06:12:53.180Z,12.32
2023-04-28T06:15:19.597Z,12.36
2023-04-28T06:17:46.226Z,12.41
2023-04-28T06:20:13.903Z,12.48
2023-04-28T06:22:41.357Z,12.53
2023-04-28T06:25:08.349Z,12.61
2023-04-28T06:27:34.818Z,12.63
2023-04-28T06:30:01.280Z,12.70
2023-04-28T06:32:27.716Z,12.88
2023-04-28T06:34:54.124Z,12.95
2023-04-28T06:37:20.742Z,13.07
2023-04-28T06:39:47.774Z,13.00
2023-04-28T06:42:18.214Z,12.98
2023-04-28T06:44:45.526Z,13.24
2023-04-28T06:47:12.044Z,13.31
2023-04-28T06:49:38.464Z,13.29
2023-04-28T06:52:04.915Z,13.33
2023-04-28T06:54:31.908Z,13.34
2023-04-28T06:56:58.357Z,13.36
2023-04-28T06:59:24.736Z,13.41
2023-04-28T07:01:51.194Z,13.24
2023-04-28T07:04:18.481Z,13.43
2023-04-28T07:06:45.306Z,13.51
2023-04-28T07:09:11.769Z,13.58
2023-04-28T07:11:38.194Z,13.63
2023-04-28T07:14:04.624Z,13.77
2023-04-28T07:16:31.103Z,13.84
2023-04-28T07:18:57.575Z,13.90
2023-04-28T07:21:23.969Z,13.95
2023-04-28T07:23:50.416Z,14.04
2023-04-28T07:26:16.932Z,14.03
2023-04-28T07:28:44.384Z,14.02
2023-04-28T07:31:11.330Z,14.07
2023-04-28T07:33:37.738Z,14.09
2023-04-28T07:36:04.740Z,14.14
2023-04-28T07:38:31.320Z,14.28
2023-04-28T07:40:57.846Z,14.47
2023-04-28T07:43:24.427Z,14.51
2023-04-28T07:45:50.955Z,14.60
2023-04-28T07:48:17.595Z,14.62
2023-04-28T07:50:44.167Z,14.85
2023-04-28T07:53:10.625Z,14.94
2023-04-28T07:55:37.341Z,14.92
2023-04-28T07:58:03.780Z,14.98
2023-04-28T08:00:30.398Z,15.17
2023-04-28T08:02:57.761Z,15.27
2023-04-28T08:05:24.672Z,15.31
2023-04-28T08:07:51.373Z,15.40
2023-04-28T08:10:17.927Z,15.52
2023-04-28T08:12:45.377Z,15.68
2023-04-28T08:15:12.166Z,15.76
2023-04-28T08:17:39.098Z,15.69
2023-04-28T08:20:06.788Z,15.73
2023-04-28T08:22:33.237Z,15.63
2023-04-28T08:24:59.694Z,15.67
2023-04-28T08:27:26.210Z,15.90
2023-04-28T08:29:52.902Z,15.88
2023-04-28T08:32:19.498Z,15.93
2023-04-28T08:34:45.911Z,16.04
2023-04-28T08:37:12.391Z,16.00
2023-04-28T08:39:38.798Z,16.24
2023-04-28T08:42:05.621Z,16.34
2023-04-28T08:44:39.839Z,16.45
2023-04-28T08:47:14.134Z,16.41
2023-04-28T08:49:41.401Z,16.63
2023-04-28T08:52:16.733Z,16.80
2023-04-28T08:54:44.227Z,17.09
2023-04-28T08:57:11.326Z,17.23
2023-04-28T08:59:40.055Z,17.40
2023-04-28T09:02:08.711Z,16.99
2023-04-28T09:04:35.570Z,17.10
2023-04-28T09:07:02.300Z,17.35
2023-04-28T09:09:33.981Z,17.35
2023-04-28T09:12:04.103Z,17.54
2023-04-28T09:14:35.368Z,17.52
2023-04-28T09:17:03.194Z,17.35
2023-04-28T09:19:37.641Z,17.50
2023-04-28T09:22:21.778Z,18.03
2023-04-28T09:24:53.454Z,18.23
2023-04-28T09:27:27.971Z,18.34
2023-04-28T09:29:54.749Z,18.56
2023-04-28T09:32:22.816Z,18.67
2023-04-28T09:34:51.597Z,18.70
2023-04-28T09:37:20.291Z,18.51
2023-04-28T09:39:51.394Z,19.05
2023-04-28T09:42:34.076Z,19.28
2023-04-28T09:45:14.164Z,19.29
2023-04-28T09:47:42.809Z,19.38
2023-04-28T09:50:14.244Z,19.50
2023-04-28T09:52:59.637Z,19.54
2023-04-28T09:55:28.278Z,19.46
2023-04-28T09:57:55.166Z,19.38
2023-04-28T10:00:23.039Z,19.37
2023-04-28T10:02:50.529Z,19.79
2023-04-28T10:05:17.285Z,19.71
2023-04-28T10:07:44.445Z,19.57
2023-04-28T10:10:14.656Z,19.51
2023-04-28T10:12:41.894Z,19.62
2023-04-28T10:15:10.243Z,19.35
2023-04-28T10:17:37.044Z,19.75
2023-04-28T10:20:05.087Z,19.92
2023-04-28T10:22:52.854Z,19.78
2023-04-28T10:25:29.906Z,19.48
2023-04-28T10:27:58.543Z,19.58
2023-04-28T10:30:29.228Z,19.66
2023-04-28T10:33:26.823Z,19.79
2023-04-28T10:35:53.740Z,19.87
2023-04-28T10:38:21.907Z,19.82
2023-04-28T10:40:53.916Z,19.86
2023-04-28T10:43:29.636Z,19.95
2023-04-28T10:46:02.086Z,20.50
2023-04-28T10:48:34.812Z,20.58
2023-04-28T10:51:04.402Z,20.30
2023-04-28T10:53:43.451Z,19.97
2023-04-28T10:56:15.438Z,19.77
2023-04-28T10:58:43.769Z,20.00
2023-04-28T11:01:22.436Z,20.32
2023-04-28T11:04:02.274Z,19.94
2023-04-28T11:06:36.350Z,20.04
2023-04-28T11:09:24.062Z,20.32
2023-04-28T11:12:03.636Z,20.72
2023-04-28T11:14:30.093Z,20.65
2023-04-28T11:17:04.888Z,20.75
2023-04-28T11:19:46.194Z,20.82
2023-04-28T11:22:20.477Z,20.64
2023-04-28T11:25:03.648Z,20.50
2023-04-28T11:27:32.280Z,20.70
2023-04-28T11:29:59.904Z,20.63
2023-04-28T11:32:28.773Z,20.80
2023-04-28T11:34:55.431Z,20.71
2023-04-28T11:37:22.863Z,20.83
2023-04-28T11:39:55.152Z,20.95
2023-04-28T11:42:21.598Z,20.72
2023-04-28T11:44:52.964Z,20.70
2023-04-28T11:47:30.507Z,20.53
2023-04-28T11:49:57.780Z,20.54
2023-04-28T11:52:24.462Z,20.74
2023-04-28T11:55:00.055Z,20.82
2023-04-28T11:57:26.934Z,20.56
2023-04-28T11:59:53.649Z,20.55
2023-04-28T12:02:30.251Z,20.93
2023-04-28T12:04:57.310Z,20.79
2023-04-28T12:07:24.555Z,20.65
2023-04-28T12:10:11.224Z,20.94
2023-04-28T12:12:49.773Z,21.04
2023-04-28T12:15:19.507Z,21.14
2023-04-28T12:17:47.061Z,21.28
2023-04-28T12:20:35.204Z,21.34
2023-04-28T12:23:03.100Z,21.16
2023-04-28T12:25:29.761Z,21.20
2023-04-28T12:27:59.441Z,21.24
2023-04-28T12:30:29.261Z,21.08
2023-04-28T12:32:56.395Z,21.07
2023-04-28T12:35:24.789Z,21.04
2023-04-28T12:37:52.972Z,20.96
2023-04-28T12:40:19.495Z,21.00
2023-04-28T12:42:46.032Z,21.14
2023-04-28T12:45:12.839Z,21.16
2023-04-28T12:47:39.730Z,21.19
2023-04-28T12:50:06.795Z,21.13
2023-04-28T12:52:34.652Z,21.15
2023-04-28T12:55:01.477Z,21.40
2023-04-28T12:57:28.891Z,21.48
2023-04-28T12:59:57.099Z,21.48
2023-04-28T13:02:24.175Z,21.36
2023-04-28T13:04:52.107Z,21.36
2023-04-28T13:07:19.113Z,21.48
2023-04-28T13:09:45.968Z,21.46
2023-04-28T13:12:13.610Z,21.42
2023-04-28T13:14:40.100Z,21.44
2023-04-28T13:17:06.598Z,21.48
2023-04-28T13:19:34.245Z,21.50
2023-04-28T13:22:01.584Z,21.55
2023-04-28T13:24:28.024Z,21.64
2023-04-28T13:26:55.567Z,21.60
2023-04-28T13:29:22.557Z,21.64
2023-04-28T13:31:49.046Z,21.45
2023-04-28T13:34:18.939Z,21.24
2023-04-28T13:36:45.807Z,21.19
2023-04-28T13:39:14.372Z,21.34
2023-04-28T13:41:40.997Z,21.48
2023-04-28T13:44:07.524Z,21.52
2023-04-28T13:46:34.004Z,21.63
2023-04-28T13:49:00.466Z,21.72
2023-04-28T13:51:28.646Z,21.68
2023-04-28T13:53:55.675Z,21.88
2023-04-28T13:56:22.126Z,22.02
2023-04-28T13:58:49.178Z,22.05
2023-04-28T14:01:15.741Z,22.11
2023-04-28T14:03:44.088Z,21.92
2023-04-28T14:06:11.501Z,21.72
2023-04-28T14:08:38.262Z,21.77
2023-04-28T14:11:05.835Z,21.84
2023-04-28T14:13:36.316Z,22.05
2023-04-28T14:16:03.159Z,22.01
2023-04-28T14:18:29.810Z,21.85
2023-04-28T14:20:56.552Z,21.57
2023-04-28T14:23:23.201Z,21.55
2023-04-28T14:25:50.369Z,21.60
2023-04-28T14:28:17.157Z,21.54
2023-04-28T14:30:44.054Z,21.54
2023-04-28T14:33:10.663Z,21.63
2023-04-28T14:35:37.519Z,21.69
2023-04-28T14:38:04.330Z,21.65
2023-04-28T14:40:31.325Z,21.60
2023-04-28T14:42:57.974Z,21.65
2023-04-28T14:45:24.581Z,21.74
2023-04-28T14:47:51.250Z,21.72
2023-04-28T14:50:18.511Z,21.79
2023-04-28T14:52:45.107Z,21.68
2023-04-28T14:55:11.808Z,21.69
2023-04-28T14:57:38.347Z,21.77
2023-04-28T15:00:07.245Z,21.73
2023-04-28T15:02:34.250Z,21.58
2023-04-28T15:05:00.957Z,21.49
2023-04-28T15:07:33.470Z,21.52
2023-04-28T15:10:00.639Z,21.51
2023-04-28T15:12:30.189Z,21.39
2023-04-28T15:14:57.005Z,21.45
2023-04-28T15:17:23.729Z,21.46
2023-04-28T15:19:50.157Z,21.46
2023-04-28T15:22:17.007Z,21.50
2023-04-28T15:24:46.762Z,21.55
2023-04-28T15:27:13.404Z,21.56
2023-04-28T15:29:40.053Z,21.59
2023-04-28T15:32:06.905Z,21.60
2023-04-28T15:34:33.813Z,21.39
2023-04-28T15:37:01.324Z,21.38
2023-04-28T15:39:28.617Z,21.41
2023-04-28T15:41:56.381Z,21.41
2023-04-28T15:44:23.076Z,21.37
2023-04-28T15:46:51.700Z,21.32
2023-04-28T15:49:18.167Z,21.25
2023-04-28T15:51:45.084Z,21.26
2023-04-28T15:54:11.694Z,21.30
2023-04-28T15:56:38.134Z,21.25
2023-04-28T15:59:04.746Z,21.19
2023-04-28T16:01:31.205Z,21.17
2023-04-28T16:03:58.162Z,21.20
2023-04-28T16:06:25.490Z,21.26
2023-04-28T16:08:52.044Z,21.20
2023-04-28T16:11:20.304Z,21.18
2023-04-28T16:13:46.802Z,21.20
2023-04-28T16:16:13.337Z,21.16
2023-04-28T16:18:39.814Z,21.14
2023-04-28T16:21:06.496Z,21.06
2023-04-28T16:23:33.245Z,21.01
2023-04-28T16:25:59.647Z,21.01
2023-04-28T16:28:26.980Z,21.00
2023-04-28T16:30:53.426Z,20.99
2023-04-28T16:33:19.821Z,21.06
2023-04-28T16:35:53.659Z,21.17
2023-04-28T16:38:20.605Z,21.22
2023-04-28T16:40:47.075Z,21.16
2023-04-28T16:43:13.534Z,21.06
2023-04-28T16:45:40.034Z,20.97
2023-04-28T16:48:07.049Z,20.99
2023-04-28T16:50:33.707Z,21.06
2023-04-28T16:53:00.122Z,21.05
2023-04-28T16:55:26.691Z,21.00
2023-04-28T16:57:53.086Z,20.93
2023-04-28T17:00:20.229Z,20.90
2023-04-28T17:02:46.939Z,20.88
2023-04-28T17:05:13.954Z,20.85
2023-04-28T17:07:40.687Z,20.82
2023-04-28T17:10:07.661Z,20.80
2023-04-28T17:12:34.144Z,20.77
2023-04-28T17:15:00.621Z,20.76
2023-04-28T17:17:27.204Z,20.77
2023-04-28T17:19:53.945Z,20.74
2023-04-28T17:22:20.360Z,20.70
2023-04-28T17:24:46.781Z,20.64
2023-04-28T17:27:14.632Z,20.58
2023-04-28T17:29:42.663Z,20.59
2023-04-28T17:32:09.215Z,20.57
2023-04-28T17:34:35.657Z,20.57
2023-04-28T17:37:02.096Z,20.57
2023-04-28T17:39:28.497Z,20.55
2023-04-28T17:41:57.562Z,20.54
2023-04-28T17:44:24.098Z,20.53
2023-04-28T17:46:50.577Z,20.52
2023-04-28T17:49:16.973Z,20.48
2023-04-28T17:51:43.399Z,20.43
2023-04-28T17:54:10.341Z,20.40
2023-04-28T17:56:38.348Z,20.38
2023-04-28T17:59:06.000Z,20.33
2023-04-28T18:01:34.830Z,20.22
2023-04-28T18:04:01.377Z,20.15
2023-04-28T18:06:29.992Z,20.10
2023-04-28T18:08:56.408Z,20.02
2023-04-28T18:11:23.306Z,20.00
2023-04-28T18:13:49.770Z,19.97
2023-04-28T18:16:16.262Z,19.90
2023-04-28T18:18:42.680Z,19.62
2023-04-28T18:21:09.567Z,19.48
2023-04-28T18:23:36.039Z,19.37
2023-04-28T18:26:02.907Z,19.24
2023-04-28T18:28:29.437Z,19.20
2023-04-28T18:30:55.867Z,19.12
2023-04-28T18:33:28.413Z,18.97
2023-04-28T18:35:59.781Z,18.92
2023-04-28T18:38:26.440Z,18.81
2023-04-28T18:40:52.866Z,18.80
2023-04-28T18:43:19.282Z,18.82
2023-04-28T18:45:45.796Z,18.79
2023-04-28T18:48:12.448Z,18.77
2023-04-28T18:50:39.108Z,18.70
2023-04-28T18:53:06.616Z,18.68
2023-04-28T18:55:33.563Z,18.66
2023-04-28T18:58:01.791Z,18.65
2023-04-28T19:00:28.335Z,18.59
2023-04-28T19:02:54.820Z,18.47
2023-04-28T19:05:21.461Z,18.39
2023-04-28T19:07:47.863Z,18.34
2023-04-28T19:10:14.274Z,18.35
2023-04-28T19:12:40.954Z,18.33
2023-04-28T19:15:07.810Z,18.25
2023-04-28T19:17:34.379Z,18.16
2023-04-28T19:20:00.873Z,18.14
2023-04-28T19:22:38.583Z,18.14
2023-04-28T19:25:07.269Z,18.15
2023-04-28T19:27:36.007Z,18.11
2023-04-28T19:30:04.135Z,18.11
2023-04-28T19:32:30.802Z,18.14
2023-04-28T19:34:57.341Z,18.14
2023-04-28T19:37:25.116Z,18.10
2023-04-28T19:39:51.857Z,17.98
2023-04-28T19:42:18.876Z,17.90
2023-04-28T19:44:46.545Z,17.75
2023-04-28T19:47:13.380Z,17.75
2023-04-28T19:49:42.084Z,17.69
2023-04-28T19:52:10.192Z,17.74
2023-04-28T19:54:38.655Z,17.78
2023-04-28T19:57:05.345Z,17.74
2023-04-28T19:59:31.985Z,17.59
2023-04-28T20:01:58.652Z,17.54
2023-04-28T20:04:26.008Z,17.53
2023-04-28T20:06:52.504Z,17.59
2023-04-28T20:09:19.045Z,17.63
2023-04-28T20:11:45.603Z,17.57
2023-04-28T20:14:12.015Z,17.56
2023-04-28T20:16:38.523Z,17.59
2023-04-28T20:19:04.937Z,17.59
2023-04-28T20:21:31.704Z,17.61
2023-04-28T20:23:58.257Z,17.64
2023-04-28T20:26:24.857Z,17.63
2023-04-28T20:28:51.320Z,17.51
2023-04-28T20:31:17.722Z,17.38
2023-04-28T20:33:44.194Z,17.39
2023-04-28T20:36:12.640Z,17.45
2023-04-28T20:38:39.058Z,17.50
2023-04-28T20:41:07.742Z,17.52
2023-04-28T20:43:34.314Z,17.44
2023-04-28T20:46:00.934Z,17.27
2023-04-28T20:48:29.133Z,17.17
2023-04-28T20:50:58.086Z,17.10
2023-04-28T20:53:24.523Z,16.98
2023-04-28T20:55:51.579Z,16.99
2023-04-28T20:58:18.063Z,17.01
2023-04-28T21:00:44.578Z,17.03
2023-04-28T21:03:15.741Z,16.88
2023-04-28T21:05:44.510Z,16.79
2023-04-28T21:08:11.398Z,16.83
2023-04-28T21:10:38.593Z,16.88
2023-04-28T21:13:05.384Z,16.93
2023-04-28T21:15:41.418Z,16.95
2023-04-28T21:18:07.990Z,16.86
2023-04-28T21:20:34.530Z,16.87
2023-04-28T21:23:01.052Z,16.76
2023-04-28T21:25:28.268Z,16.59
2023-04-28T21:27:55.273Z,16.54
2023-04-28T21:30:22.194Z,16.58
2023-04-28T21:32:48.743Z,16.47
2023-04-28T21:35:16.184Z,16.50
2023-04-28T21:37:42.735Z,16.34
2023-04-28T21:40:09.521Z,16.24
2023-04-28T21:42:36.232Z,16.33
2023-04-28T21:45:02.739Z,16.38
2023-04-28T21:47:29.797Z,16.38
2023-04-28T21:49:56.277Z,16.27
2023-04-28T21:52:22.685Z,16.30
2023-04-28T21:54:49.074Z,16.36
2023-04-28T21:57:15.822Z,16.36
2023-04-28T21:59:42.365Z,16.36
2023-04-28T22:02:09.074Z,16.32
2023-04-28T22:04:36.032Z,16.19
2023-04-28T22:07:02.643Z,16.10
2023-04-28T22:09:29.172Z,16.02
2023-04-28T22:11:55.719Z,16.17
2023-04-28T22:14:39.590Z,16.12
2023-04-28T22:17:07.460Z,16.01
2023-04-28T22:19:34.061Z,15.97
2023-04-28T22:22:00.528Z,15.95
2023-04-28T22:24:27.716Z,15.96
2023-04-28T22:26:54.816Z,15.99
2023-04-28T22:29:21.532Z,16.02
2023-04-28T22:31:48.044Z,16.17
2023-04-28T22:34:14.547Z,16.17
2023-04-28T22:36:42.053Z,16.21
2023-04-28T22:39:08.576Z,16.21
2023-04-28T22:41:34.956Z,16.24
2023-04-28T22:44:01.387Z,16.23
2023-04-28T22:46:28.614Z,16.25
2023-04-28T22:48:55.215Z,16.24
2023-04-28T22:51:21.787Z,16.21
2023-04-28T22:53:48.640Z,16.21
2023-04-28T22:56:15.695Z,16.13
2023-04-28T22:58:42.250Z,16.16
2023-04-28T23:01:09.201Z,16.16
2023-04-28T23:03:36.065Z,16.20
2023-04-28T23:06:02.631Z,16.20
2023-04-28T23:08:29.083Z,16.25
2023-04-28T23:10:58.923Z,16.30
2023-04-28T23:13:25.499Z,16.17
2023-04-28T23:15:52.038Z,16.04
2023-04-28T23:18:18.742Z,16.03
2023-04-28T23:20:48.687Z,16.06
2023-04-28T23:23:15.190Z,16.04
2023-04-28T23:25:42.898Z,15.96
2023-04-28T23:28:10.182Z,15.91
2023-04-28T23:30:36.657Z,16.00
2023-04-28T23:33:03.127Z,16.06
2023-04-28T23:35:29.575Z,16.06
2023-04-28T23:37:56.260Z,16.14
2023-04-28T23:40:22.663Z,16.20
2023-04-28T23:42:49.078Z,16.11
2023-04-28T23:45:15.882Z,16.06
2023-04-28T23:47:42.277Z,16.04
2023-04-28T23:50:09.782Z,16.08
2023-04-28T23:52:40.238Z,16.07
2023-04-28T23:55:12.873Z,16.05
2023-04-28T23:57:39.862Z,16.00
